Terminal Aerodrome Forecast
Issued by NWS

Current Version | Previous Version | Text Only | Print | Product List | Glossary On
Versions: 1 2 3 4 5 6 7 8 9 10 11 12 13 14 15 16 17 18 19 20 21
000
FTAK31 PAFA 250540
TAFAFA
TAF
PAFA 250540Z 2506/2612 24012G16KT P6SM VCSH FEW020 SCT045 BKN090
     FM251000 28012KT 3SM -SHSN BR OVC020
     FM252000 35004KT P6SM VCSH SCT020 BKN050 BKN100
     FM260000 03004KT 1SM -SN BR OVC015=

USA.gov is the U.S. government's official web portal to all federal, state and local government web resources and services.